Fernie, Canada
Current Conditions -  °F | °C
As of 4:00 AM on Tuesday 21 Oct 2014 (Local Time) from CYXC Reporting Station
Light Rain Light Rain  
Wind Chill: 50°   Ceiling: 5500
Heat Index: 50°   Visibility: 15mi
Dew Point: 43°   Wind: 3mph
Humidity: 76%   Direction: 260°W
Pressure: 29.76"   Gusts: NA
Location:  49.51°N, 115.06°W
Report Text: CYXC 211000Z 26003KT 15SM -RA BKN055 OVC080 10/06 A2976 RMK SC6AC2 SLP073 DENSITY ALT 3400FT
Loading
Personal Weather Stations






























Interactive Weather Map New forecast layout! Learn more

10-Day Weather Forecast

Advertisements
Track Severe Weather on mobile